createdAt,value
2018-02-04T00:01:02.194Z,12.40
2018-02-04T00:03:30.483Z,11.30
2018-02-04T00:05:58.815Z,9.20
2018-02-04T00:08:27.121Z,10.80
2018-02-04T00:10:55.398Z,9.73
2018-02-04T00:13:23.656Z,10.20
2018-02-04T00:15:51.945Z,9.97
2018-02-04T00:18:20.205Z,11.15
2018-02-04T00:20:48.503Z,10.57
2018-02-04T00:23:16.769Z,10.57
2018-02-04T00:25:45.055Z,10.30
2018-02-04T00:28:13.371Z,10.27
2018-02-04T00:30:41.657Z,10.33
2018-02-04T00:33:10.126Z,10.77
2018-02-04T00:35:38.434Z,10.60
2018-02-04T00:38:06.727Z,11.70
2018-02-04T00:40:35.324Z,12.00
2018-02-04T00:43:03.649Z,11.07
2018-02-04T00:45:31.967Z,12.07
2018-02-04T00:48:00.266Z,11.70
2018-02-04T00:50:28.605Z,11.60
2018-02-04T00:52:56.889Z,11.40
2018-02-04T00:55:25.180Z,11.80
2018-02-04T00:57:53.470Z,11.00
2018-02-04T01:00:22.426Z,10.85
2018-02-04T01:02:50.707Z,10.70
2018-02-04T01:05:18.983Z,10.40
2018-02-04T01:07:47.283Z,10.60
2018-02-04T01:10:16.574Z,10.50
2018-02-04T01:12:44.878Z,10.77
2018-02-04T01:15:13.146Z,11.25
2018-02-04T01:17:41.450Z,10.73
2018-02-04T01:20:09.740Z,10.90
2018-02-04T01:22:38.064Z,12.30
2018-02-04T01:25:06.340Z,11.50
2018-02-04T01:27:34.669Z,11.90
2018-02-04T01:30:03.249Z,11.70
2018-02-04T01:32:31.555Z,12.30
2018-02-04T01:34:59.876Z,11.60
2018-02-04T01:37:28.154Z,11.37
2018-02-04T01:39:56.754Z,12.03
2018-02-04T01:42:25.338Z,11.97
2018-02-04T01:44:53.655Z,12.13
2018-02-04T01:47:21.926Z,12.82
2018-02-04T01:49:50.224Z,12.47
2018-02-04T01:52:18.494Z,10.93
2018-02-04T01:54:46.850Z,12.47
2018-02-04T01:57:15.162Z,13.60
2018-02-04T01:59:43.455Z,11.97
2018-02-04T02:02:11.754Z,11.67
2018-02-04T02:04:40.038Z,11.53
2018-02-04T02:07:08.351Z,11.63
2018-02-04T02:09:36.611Z,12.90
2018-02-04T02:12:05.083Z,10.40
2018-02-04T02:14:33.371Z,11.53
2018-02-04T02:17:01.651Z,11.40
2018-02-04T02:19:29.942Z,10.83
2018-02-04T02:21:58.220Z,11.40
2018-02-04T02:24:27.423Z,11.40
2018-02-04T02:26:55.690Z,11.30
2018-02-04T02:29:23.995Z,11.27
2018-02-04T02:31:52.272Z,12.32
2018-02-04T02:34:20.617Z,10.90
2018-02-04T02:36:48.883Z,11.30
2018-02-04T02:39:17.163Z,11.35
2018-02-04T02:41:45.444Z,11.57
2018-02-04T02:44:13.712Z,11.68
2018-02-04T02:46:42.003Z,11.10
2018-02-04T02:49:10.264Z,11.00
2018-02-04T02:51:38.554Z,10.87
2018-02-04T02:54:06.840Z,11.80
2018-02-04T02:56:35.149Z,11.00
2018-02-04T02:59:04.332Z,10.60
2018-02-04T03:01:32.976Z,10.57
2018-02-04T03:04:01.244Z,10.97
2018-02-04T03:06:29.519Z,10.73
2018-02-04T03:08:58.042Z,11.70
2018-02-04T03:11:26.302Z,10.60
2018-02-04T03:13:54.605Z,10.10
2018-02-04T03:16:22.874Z,11.63
2018-02-04T03:18:51.196Z,11.10
2018-02-04T03:21:19.488Z,10.40
2018-02-04T03:23:47.789Z,10.17
2018-02-04T03:26:16.115Z,9.43
2018-02-04T03:28:44.416Z,10.40
2018-02-04T03:31:12.719Z,10.20
2018-02-04T03:33:40.978Z,10.40
2018-02-04T03:36:09.285Z,10.40
2018-02-04T03:38:37.539Z,10.87
2018-02-04T03:41:05.820Z,9.60
2018-02-04T03:43:34.079Z,9.90
2018-02-04T03:46:02.356Z,9.70
2018-02-04T03:48:30.646Z,10.57
2018-02-04T03:50:58.934Z,10.50
2018-02-04T03:53:27.244Z,11.80
2018-02-04T03:55:55.533Z,11.27
2018-02-04T03:58:23.845Z,11.00
2018-02-04T04:00:52.111Z,10.10
2018-02-04T04:03:20.411Z,10.75
2018-02-04T04:05:48.671Z,10.30
2018-02-04T04:08:16.966Z,10.53
2018-02-04T04:10:45.221Z,10.10
2018-02-04T04:13:13.508Z,11.30
2018-02-04T04:15:41.783Z,10.90
2018-02-04T04:18:10.152Z,11.02
2018-02-04T04:20:38.420Z,10.50
2018-02-04T04:23:06.700Z,11.73
2018-02-04T04:25:35.034Z,10.27
2018-02-04T04:28:03.317Z,10.73
2018-02-04T04:30:31.667Z,11.33
2018-02-04T04:32:59.928Z,10.63
2018-02-04T04:35:28.198Z,11.17
2018-02-04T04:37:56.471Z,10.80
2018-02-04T04:40:24.753Z,11.35
2018-02-04T04:42:53.014Z,10.63
2018-02-04T04:45:21.363Z,10.43
2018-02-04T04:47:49.649Z,9.23
2018-02-04T04:50:17.916Z,9.90
2018-02-04T04:52:46.213Z,9.87
2018-02-04T04:55:14.495Z,9.27
2018-02-04T04:57:42.774Z,9.43
2018-02-04T05:00:11.057Z,9.23
2018-02-04T05:02:39.343Z,9.70
2018-02-04T05:05:07.624Z,10.07
2018-02-04T05:07:35.958Z,9.43
2018-02-04T05:10:04.255Z,10.67
2018-02-04T05:12:32.563Z,10.13
2018-02-04T05:15:00.831Z,10.03
2018-02-04T05:17:29.091Z,9.82
2018-02-04T05:19:57.398Z,9.53
2018-02-04T05:22:25.661Z,10.20
2018-02-04T05:24:54.587Z,10.70
2018-02-04T05:27:22.839Z,10.57
2018-02-04T05:29:51.134Z,10.00
2018-02-04T05:32:19.414Z,10.00
2018-02-04T05:34:47.720Z,10.57
2018-02-04T05:37:16.067Z,10.35
2018-02-04T05:39:44.339Z,10.87
2018-02-04T05:42:12.630Z,10.90
2018-02-04T05:44:40.899Z,10.48
2018-02-04T05:47:09.215Z,10.13
2018-02-04T05:49:37.484Z,11.53
2018-02-04T05:52:05.779Z,10.77
2018-02-04T05:54:34.056Z,11.20
2018-02-04T05:57:02.389Z,10.50
2018-02-04T05:59:30.662Z,11.03
2018-02-04T06:01:58.926Z,10.73
2018-02-04T06:04:27.216Z,10.70
2018-02-04T06:06:55.509Z,12.10
2018-02-04T06:09:23.812Z,11.23
2018-02-04T06:11:52.079Z,11.83
2018-02-04T06:14:20.368Z,12.40
2018-02-04T06:16:48.633Z,10.50
2018-02-04T06:19:16.939Z,11.20
2018-02-04T06:21:45.204Z,11.65
2018-02-04T06:24:13.490Z,11.70
2018-02-04T06:26:41.786Z,10.93
2018-02-04T06:29:10.067Z,11.45
2018-02-04T06:31:38.381Z,12.47
2018-02-04T06:34:06.660Z,12.27
2018-02-04T06:36:34.958Z,11.47
2018-02-04T06:39:03.220Z,11.87
2018-02-04T06:41:31.510Z,11.73
2018-02-04T06:43:59.774Z,11.23
2018-02-04T06:46:28.047Z,11.13
2018-02-04T06:48:56.339Z,11.47
2018-02-04T06:51:24.630Z,11.20
2018-02-04T06:53:52.936Z,11.43
2018-02-04T06:56:21.237Z,11.13
2018-02-04T06:58:49.529Z,11.70
2018-02-04T07:01:17.859Z,12.50
2018-02-04T07:03:46.937Z,12.40
2018-02-04T07:06:15.842Z,11.25
2018-02-04T07:08:44.122Z,12.07
2018-02-04T07:11:12.428Z,12.03
2018-02-04T07:13:40.689Z,12.00
2018-02-04T07:16:08.996Z,12.77
2018-02-04T07:18:37.482Z,11.87
2018-02-04T07:21:05.861Z,13.37
2018-02-04T07:23:35.093Z,12.57
2018-02-04T07:26:03.741Z,14.10
2018-02-04T07:28:33.227Z,13.30
2018-02-04T07:31:01.486Z,13.27
2018-02-04T07:33:29.797Z,12.10
2018-02-04T07:35:58.075Z,12.77
2018-02-04T07:38:26.435Z,13.37
2018-02-04T07:40:54.710Z,12.17
2018-02-04T07:43:23.009Z,12.63
2018-02-04T07:45:51.294Z,12.50
2018-02-04T07:48:19.605Z,12.57
2018-02-04T07:50:47.889Z,13.27
2018-02-04T07:53:17.054Z,12.20
2018-02-04T07:55:45.384Z,12.27
2018-02-04T07:58:13.669Z,10.97
2018-02-04T08:00:41.966Z,11.00
2018-02-04T08:03:10.254Z,10.27
2018-02-04T08:05:38.527Z,9.65
2018-02-04T08:08:06.815Z,9.60
2018-02-04T08:10:35.560Z,10.30
2018-02-04T08:13:04.843Z,10.60
2018-02-04T08:15:33.136Z,9.83
2018-02-04T08:18:01.414Z,10.37
2018-02-04T08:20:29.723Z,9.80
2018-02-04T08:22:57.982Z,10.10
2018-02-04T08:25:26.267Z,10.63
2018-02-04T08:27:54.535Z,10.20
2018-02-04T08:30:22.820Z,10.63
2018-02-04T08:32:51.086Z,10.87
2018-02-04T08:35:19.467Z,9.73
2018-02-04T08:37:47.744Z,9.57
2018-02-04T08:40:16.031Z,10.07
2018-02-04T08:42:44.318Z,11.40
2018-02-04T08:45:12.650Z,10.52
2018-02-04T08:47:40.928Z,11.40
2018-02-04T08:50:09.197Z,11.02
2018-02-04T08:52:37.494Z,10.83
2018-02-04T08:55:05.780Z,10.70
2018-02-04T08:57:34.093Z,10.47
2018-02-04T09:00:02.368Z,9.40
2018-02-04T09:02:30.671Z,9.70
2018-02-04T09:04:58.946Z,9.73
2018-02-04T09:07:27.225Z,10.80
2018-02-04T09:09:55.534Z,8.90
2018-02-04T09:12:23.823Z,8.85
2018-02-04T09:14:52.143Z,6.17
2018-02-04T09:17:20.570Z,6.87
2018-02-04T09:19:48.838Z,5.97
2018-02-04T09:22:17.105Z,6.37
2018-02-04T09:24:45.482Z,6.20
2018-02-04T09:27:14.499Z,6.55
2018-02-04T09:29:42.794Z,7.20
2018-02-04T09:32:11.043Z,6.47
2018-02-04T09:34:39.344Z,5.90
2018-02-04T09:37:07.630Z,5.60
2018-02-04T09:39:35.885Z,4.97
2018-02-04T09:42:04.152Z,6.20
2018-02-04T09:44:32.429Z,7.10
2018-02-04T09:47:00.728Z,6.27
2018-02-04T09:49:28.970Z,5.93
2018-02-04T09:51:57.246Z,6.77
2018-02-04T09:54:25.870Z,6.87
2018-02-04T09:56:54.167Z,7.03
2018-02-04T09:59:22.501Z,6.67
2018-02-04T10:01:50.747Z,6.57
2018-02-04T10:04:19.223Z,5.40
2018-02-04T10:06:47.463Z,4.97
2018-02-04T10:09:16.405Z,5.60
2018-02-04T10:11:44.734Z,5.53
2018-02-04T10:14:12.998Z,5.85
2018-02-04T10:16:41.365Z,6.93
2018-02-04T10:19:09.682Z,6.50
2018-02-04T10:21:37.996Z,6.60
2018-02-04T10:24:06.296Z,8.00
2018-02-04T10:26:34.582Z,7.57
2018-02-04T10:29:02.874Z,6.53
2018-02-04T10:31:31.195Z,7.00
2018-02-04T10:33:59.438Z,7.60
2018-02-04T10:36:27.752Z,8.10
2018-02-04T10:38:56.029Z,12.53
2018-02-04T10:41:24.326Z,8.80
2018-02-04T10:43:52.583Z,6.87
2018-02-04T10:46:20.862Z,6.83
2018-02-04T10:48:49.130Z,7.40
2018-02-04T10:51:22.820Z,7.25
2018-02-04T10:53:51.091Z,7.33
2018-02-04T10:56:19.379Z,7.53
2018-02-04T10:58:47.669Z,6.80
2018-02-04T11:01:16.944Z,7.67
2018-02-04T11:03:45.244Z,7.60
2018-02-04T11:06:13.517Z,8.17
2018-02-04T11:08:41.814Z,8.60
2018-02-04T11:11:10.096Z,7.67
2018-02-04T11:13:38.458Z,6.70
2018-02-04T11:16:06.715Z,8.10
2018-02-04T11:18:35.043Z,7.13
2018-02-04T11:21:03.296Z,7.13
2018-02-04T11:23:31.594Z,8.47
2018-02-04T11:25:59.867Z,7.97
2018-02-04T11:28:28.160Z,7.82
2018-02-04T11:30:56.515Z,8.30
2018-02-04T11:33:24.802Z,8.07
2018-02-04T11:35:53.107Z,7.20
2018-02-04T11:38:21.382Z,8.73
2018-02-04T11:40:49.700Z,7.20
2018-02-04T11:43:17.976Z,8.98
2018-02-04T11:45:46.250Z,7.57
2018-02-04T11:48:14.531Z,8.48
2018-02-04T11:50:42.815Z,8.57
2018-02-04T11:53:11.084Z,8.40
2018-02-04T11:55:39.380Z,8.07
2018-02-04T11:58:07.639Z,6.50
2018-02-04T12:00:35.997Z,7.33
2018-02-04T12:03:05.211Z,7.47
2018-02-04T12:05:33.486Z,7.00
2018-02-04T12:08:01.778Z,7.80
2018-02-04T12:10:30.063Z,8.07
2018-02-04T12:12:58.328Z,7.47
2018-02-04T12:15:26.600Z,6.60
2018-02-04T12:17:54.912Z,7.97
2018-02-04T12:20:23.164Z,7.90
2018-02-04T12:22:51.464Z,7.20
2018-02-04T12:25:19.742Z,6.80
2018-02-04T12:27:48.053Z,7.50
2018-02-04T12:30:16.331Z,6.90
2018-02-04T12:32:44.596Z,8.30
2018-02-04T12:35:12.928Z,9.87
2018-02-04T12:37:42.039Z,8.70
2018-02-04T12:40:10.406Z,11.65
2018-02-04T12:42:39.575Z,8.30
2018-02-04T12:45:08.249Z,8.30
2018-02-04T12:47:36.539Z,8.57
2018-02-04T12:50:04.824Z,7.20
2018-02-04T12:52:33.117Z,8.13
2018-02-04T12:55:01.367Z,7.60
2018-02-04T12:57:29.716Z,7.97
2018-02-04T12:59:58.575Z,8.20
2018-02-04T13:02:26.880Z,9.07
2018-02-04T13:04:55.197Z,8.30
2018-02-04T13:16:22.552Z,7.40
2018-02-04T13:18:50.815Z,6.77
2018-02-04T13:21:19.097Z,4.93
2018-02-04T13:23:47.457Z,6.13
2018-02-04T13:26:15.711Z,7.00
2018-02-04T13:28:44.207Z,7.00
2018-02-04T13:31:12.479Z,7.22
2018-02-04T13:33:40.782Z,5.60
2018-02-04T13:36:09.063Z,6.80
2018-02-04T13:38:37.420Z,6.80
2018-02-04T13:41:05.637Z,7.27
2018-02-04T13:43:33.918Z,7.10
2018-02-04T13:46:02.781Z,5.77
2018-02-04T13:48:31.102Z,5.43
2018-02-04T13:50:59.363Z,6.07
2018-02-04T13:53:27.647Z,6.32
2018-02-04T13:55:55.934Z,6.73
2018-02-04T13:58:24.259Z,6.50
2018-02-04T14:00:52.532Z,6.63
2018-02-04T14:03:20.790Z,6.67
2018-02-04T14:05:49.118Z,6.50
2018-02-04T14:08:17.393Z,7.40
2018-02-04T14:10:45.678Z,6.70
2018-02-04T14:13:13.948Z,7.05
2018-02-04T14:15:42.251Z,6.80
2018-02-04T14:18:10.524Z,6.13
2018-02-04T14:20:38.897Z,6.30
2018-02-04T14:23:07.176Z,6.60
2018-02-04T14:25:35.431Z,6.87
2018-02-04T14:28:03.714Z,6.75
2018-02-04T14:30:32.037Z,7.50
2018-02-04T14:33:00.278Z,7.27
2018-02-04T14:35:28.545Z,7.40
2018-02-04T14:37:56.848Z,6.17
2018-02-04T14:40:25.152Z,6.17
2018-02-04T14:42:53.407Z,7.23
2018-02-04T14:45:21.668Z,6.57
2018-02-04T14:47:49.943Z,6.97
2018-02-04T14:50:18.358Z,6.28
2018-02-04T14:52:46.618Z,6.37
2018-02-04T14:55:14.899Z,6.25
2018-02-04T14:57:43.175Z,5.90
2018-02-04T15:00:11.462Z,6.47
2018-02-04T15:02:40.467Z,5.55
2018-02-04T15:05:08.795Z,6.80
2018-02-04T15:07:37.056Z,5.83
2018-02-04T15:10:05.376Z,6.10
2018-02-04T15:12:33.630Z,5.73
2018-02-04T15:15:01.951Z,5.90
2018-02-04T15:17:30.255Z,5.93
2018-02-04T15:19:58.525Z,6.00
2018-02-04T15:22:26.832Z,6.55
2018-02-04T15:24:55.103Z,6.70
2018-02-04T15:27:23.465Z,5.73
2018-02-04T15:29:51.733Z,5.53
2018-02-04T15:32:20.032Z,5.50
2018-02-04T15:34:48.294Z,5.70
2018-02-04T15:37:16.602Z,5.83
2018-02-04T15:39:44.851Z,6.47
2018-02-04T15:42:13.137Z,5.72
2018-02-04T15:44:41.440Z,6.00
2018-02-04T15:47:10.637Z,5.87
2018-02-04T15:49:38.967Z,5.97
2018-02-04T15:52:07.235Z,6.37
2018-02-04T15:54:35.527Z,5.87
2018-02-04T15:57:04.432Z,6.30
2018-02-04T15:59:32.750Z,5.47
2018-02-04T16:02:01.488Z,5.43
2018-02-04T16:04:30.564Z,5.33
2018-02-04T16:06:58.803Z,5.90
2018-02-04T16:09:27.135Z,6.70
2018-02-04T16:11:55.391Z,5.40
2018-02-04T16:14:23.655Z,5.77
2018-02-04T16:16:51.923Z,5.80
2018-02-04T16:19:20.220Z,5.43
2018-02-04T16:21:48.511Z,6.10
2018-02-04T16:24:16.760Z,5.53
2018-02-04T16:26:45.034Z,5.87
2018-02-04T16:29:13.291Z,5.77
2018-02-04T16:31:41.547Z,5.80
2018-02-04T16:34:09.807Z,5.20
2018-02-04T16:36:38.082Z,6.27
2018-02-04T16:39:06.361Z,5.20
2018-02-04T16:41:34.680Z,5.00
2018-02-04T16:44:03.696Z,5.27
2018-02-04T16:46:31.956Z,5.43
2018-02-04T16:49:00.232Z,5.63
2018-02-04T16:51:29.888Z,6.53
2018-02-04T16:53:58.266Z,6.10
2018-02-04T16:56:31.393Z,5.53
2018-02-04T16:58:59.720Z,5.33
2018-02-04T17:01:27.995Z,5.70
2018-02-04T17:03:56.289Z,5.90
2018-02-04T17:06:24.549Z,5.67
2018-02-04T17:08:52.816Z,6.10
2018-02-04T17:11:21.116Z,5.70
2018-02-04T17:13:49.396Z,5.40
2018-02-04T17:16:17.671Z,5.70
2018-02-04T17:18:45.960Z,5.13
2018-02-04T17:21:14.223Z,5.17
2018-02-04T17:23:42.543Z,6.20
2018-02-04T17:26:10.849Z,6.63
2018-02-04T17:28:39.117Z,6.03
2018-02-04T17:31:07.405Z,6.13
2018-02-04T17:33:36.252Z,6.43
2018-02-04T17:36:04.478Z,6.80
2018-02-04T17:38:32.755Z,5.73
2018-02-04T17:41:01.016Z,5.20
2018-02-04T17:43:29.291Z,5.90
2018-02-04T17:45:57.576Z,9.30
2018-02-04T17:48:25.841Z,6.00
2018-02-04T17:50:54.154Z,7.40
2018-02-04T17:53:22.465Z,5.80
2018-02-04T17:55:50.789Z,6.27
2018-02-04T17:58:19.063Z,5.50
2018-02-04T18:00:47.391Z,5.80
2018-02-04T18:03:15.672Z,6.33
2018-02-04T18:05:44.058Z,6.13
2018-02-04T18:08:12.318Z,7.43
2018-02-04T18:10:40.582Z,6.50
2018-02-04T18:13:08.879Z,6.83
2018-02-04T18:15:37.712Z,6.67
2018-02-04T18:18:05.987Z,6.47
2018-02-04T18:20:34.268Z,6.70
2018-02-04T18:23:02.555Z,7.50
2018-02-04T18:25:30.803Z,6.40
2018-02-04T18:27:59.115Z,7.20
2018-02-04T18:30:27.392Z,6.53
2018-02-04T18:32:55.690Z,6.30
2018-02-04T18:35:23.957Z,7.10
2018-02-04T18:37:52.220Z,6.47
2018-02-04T18:40:20.498Z,6.27
2018-02-04T18:42:48.764Z,6.97
2018-02-04T18:45:17.048Z,7.30
2018-02-04T18:47:45.334Z,7.40
2018-02-04T18:50:13.635Z,6.70
2018-02-04T18:52:41.875Z,6.90
2018-02-04T18:55:10.161Z,6.80
2018-02-04T18:57:38.467Z,6.40
2018-02-04T19:00:06.789Z,6.23
2018-02-04T19:02:35.027Z,7.30
2018-02-04T19:05:03.285Z,6.23
2018-02-04T19:07:31.570Z,6.90
2018-02-04T19:10:00.134Z,6.20
2018-02-04T19:12:28.570Z,6.30
2018-02-04T19:14:56.779Z,6.33
2018-02-04T19:17:25.062Z,5.40
2018-02-04T19:19:54.179Z,5.90
2018-02-04T19:22:22.473Z,6.60
2018-02-04T19:24:50.737Z,7.20
2018-02-04T19:27:19.706Z,6.30
2018-02-04T19:29:48.279Z,6.90
2018-02-04T19:32:16.541Z,7.17
2018-02-04T19:34:44.851Z,6.33
2018-02-04T19:37:13.123Z,6.10
2018-02-04T19:39:41.389Z,6.50
2018-02-04T19:42:09.664Z,6.50
2018-02-04T19:44:37.903Z,7.13
2018-02-04T19:47:06.163Z,6.63
2018-02-04T19:49:34.423Z,6.43
2018-02-04T19:52:03.130Z,6.93
2018-02-04T19:54:31.392Z,6.23
2018-02-04T19:56:59.652Z,6.50
2018-02-04T19:59:27.926Z,6.50
2018-02-04T20:01:56.409Z,7.20
2018-02-04T20:04:24.710Z,7.10
2018-02-04T20:06:52.964Z,7.40
2018-02-04T20:09:21.248Z,7.60
2018-02-04T20:11:49.504Z,6.80
2018-02-04T20:14:17.798Z,7.37
2018-02-04T20:16:46.096Z,7.33
2018-02-04T20:19:14.373Z,7.17
2018-02-04T20:21:42.650Z,7.47
2018-02-04T20:24:10.911Z,7.77
2018-02-04T20:26:39.212Z,8.07
2018-02-04T20:29:07.501Z,8.13
2018-02-04T20:31:35.778Z,8.43
2018-02-04T20:34:15.919Z,7.93
2018-02-04T20:36:44.188Z,6.80
2018-02-04T20:39:12.507Z,8.60
2018-02-04T20:41:40.756Z,8.03
2018-02-04T20:44:09.048Z,8.87
2018-02-04T20:46:37.322Z,8.50
2018-02-04T20:49:05.639Z,8.20
2018-02-04T20:51:34.032Z,8.20
2018-02-04T20:54:02.331Z,8.07
2018-02-04T20:56:32.638Z,8.43
2018-02-04T20:59:01.233Z,8.70
2018-02-04T21:01:30.324Z,9.00
2018-02-04T21:03:58.879Z,8.63
2018-02-04T21:06:28.102Z,8.67
2018-02-04T21:08:56.387Z,9.17
2018-02-04T21:11:24.680Z,9.17
2018-02-04T21:13:52.954Z,7.77
2018-02-04T21:16:21.229Z,8.20
2018-02-04T21:18:49.506Z,7.80
2018-02-04T21:21:17.763Z,8.33
2018-02-04T21:23:46.069Z,8.50
2018-02-04T21:26:14.347Z,8.70
2018-02-04T21:28:42.649Z,9.30
2018-02-04T21:31:10.896Z,7.73
2018-02-04T21:33:39.182Z,8.40
2018-02-04T21:36:07.486Z,8.20
2018-02-04T21:38:35.829Z,8.40
2018-02-04T21:41:04.095Z,8.10
2018-02-04T21:43:32.417Z,7.90
2018-02-04T21:46:00.688Z,8.20
2018-02-04T21:48:28.944Z,8.13
2018-02-04T21:50:57.266Z,8.57
2018-02-04T21:53:25.572Z,8.40
2018-02-04T21:55:53.835Z,8.23
2018-02-04T21:58:22.158Z,8.57
2018-02-04T22:00:50.423Z,8.60
2018-02-04T22:03:18.721Z,8.50
2018-02-04T22:05:46.975Z,8.40
2018-02-04T22:08:15.288Z,8.30
2018-02-04T22:10:43.583Z,8.07
2018-02-04T22:13:11.861Z,7.70
2018-02-04T22:15:40.163Z,9.40
2018-02-04T22:18:08.453Z,8.13
2018-02-04T22:20:37.075Z,8.30
2018-02-04T22:23:05.350Z,8.37
2018-02-04T22:25:33.652Z,8.50
2018-02-04T22:28:01.934Z,8.27
2018-02-04T22:30:30.226Z,8.83
2018-02-04T22:32:58.480Z,8.33
2018-02-04T22:35:26.767Z,8.00
2018-02-04T22:37:55.053Z,8.30
2018-02-04T22:40:23.354Z,8.67
2018-02-04T22:42:51.601Z,7.87
2018-02-04T22:45:19.911Z,8.80
2018-02-04T22:47:48.186Z,8.30
2018-02-04T22:50:17.308Z,8.33
2018-02-04T22:52:45.621Z,3.70
2018-02-04T22:55:13.866Z,7.27
2018-02-04T22:57:42.167Z,6.10
2018-02-04T23:00:10.478Z,6.63
2018-02-04T23:02:38.786Z,6.80
2018-02-04T23:05:07.054Z,7.70
2018-02-04T23:07:35.368Z,7.90
2018-02-04T23:10:03.664Z,9.13
2018-02-04T23:12:31.970Z,8.70
2018-02-04T23:15:00.347Z,9.40
2018-02-04T23:17:28.620Z,8.77
2018-02-04T23:19:56.933Z,8.97
2018-02-04T23:22:25.227Z,8.13
2018-02-04T23:24:53.518Z,8.50
2018-02-04T23:27:21.792Z,8.50
2018-02-04T23:29:50.135Z,8.63
2018-02-04T23:32:18.494Z,9.10
2018-02-04T23:34:46.810Z,9.10
2018-02-04T23:37:15.088Z,8.80
2018-02-04T23:39:43.386Z,9.23
2018-02-04T23:42:11.727Z,8.67
2018-02-04T23:44:40.036Z,8.80
2018-02-04T23:47:08.369Z,8.80
2018-02-04T23:49:36.643Z,8.77
2018-02-04T23:52:05.161Z,8.27
2018-02-04T23:54:33.432Z,8.07
2018-02-04T23:57:01.724Z,9.10
2018-02-04T23:59:30.006Z,8.93
